[Completed] Infinite Flight General Aviation Club || Celtic Sea Journey @ EGFF - 132000ZJAN19 || Powered By LiveFlight

Thanks! I just don’t feel like being in any slacks right now. If their is another way let me know, but thanks anyways! See you at the event!

1 Like

Would you still like a gate?

I’ll take a gate

1 Like

no sorry, saw the date wrongly

1 Like

I will snag a gate. See ya there!

1 Like

Actually I have a conflicting event, remove me please.

1 Like

Roger. GA S06 is yours :)

All good! Hope to see you at a future event @Luke_Sta @Rishon_R

2 Likes

Event Is In 1 Hour


Don’t forget that we are spawning in 5 Minutes Early - Updated Weather Report Will Be Out In 30 Minutes. Start Pre-Startup Checklist When You Spawn In

Open in IF Checklists


Ah sorry can’t make it. I got to go to eat with my family.

1 Like

I’ll take GA Apron 2 please. Callsign : HP-10

1 Like

Okay! GA Apron 02 is yours

1 Like

Current Weather NOTAM For The Area


EGFF [Cardiff Intl]
Visibility: 6+ sm
METAR: EGFF 131920Z AUTO 30021KT 9999 BKN026 OVC036 10/09 Q1015


EGTE [Exeter Arpt]
Visibility: 6+ sm
METAR: EGTE 131920Z 31014KT 9999 BKN018 10/08 Q1017


To The East - Bristol

EGGD [Bristol Intl]
Visibility: 6+ sm
METAR: EGGD 131920Z AUTO 27016KT 9999 BKN028 09/08 Q1014

To The South-West

EGHQ [Newquay/Cornwall Arp]
Visibility: 4.97 sm
METAR: EGHQ 131920Z 30020KT 8000 BKN008 10/09 Q1020


Spawn In!

Begin Your Pre-Start Checklist using IF Checklists

Open in IF Checklists

1 Like

If you are at this event but not in the Event PM. Let me know ;)

1 Like

Oh boy do I love how IFC takes the quality out of my LiveFlight Screenshots!


Track us via Liveflightapp.com

Thanks For Flying GA This Weekend! We Hope That You Had A Fun Time!

Did you enjoy flying using IF Checklists? Consider purchasing IF Checklists Plus for Voice Feedback, Weather, Cruise Information and so much fore

Open in IF Checklists


Join The IFGAC: https://ga-club.weebly.com/

This topic was automatically closed 90 days after the last reply. New replies are no longer allowed.